Time;durP1;ratioP1;P1;durP2;ratioP2;P2;SDS_P1;SDS_P2;PMS_P1;PMS_P2;Temp;Humidity;BMP_temperature;BMP_pressure;BME280_temperature;BME280_humidity;BME280_pressure;Samples;Min_cycle;Max_cycle;Signal;HPM_P1;HPM_P2
2023/06/18 00:00:11;;;;;;;18.85;10.45;;;16.90;99.90;;;;;;4995656;28;20209;-84
2023/06/18 00:02:36;;;;;;;14.43;9.32;;;16.90;99.90;;;;;;4978808;28;20188;-85
2023/06/18 00:05:02;;;;;;;16.25;10.30;;;16.90;99.90;;;;;;4995950;28;20264;-87
2023/06/18 00:07:28;;;;;;;16.83;10.80;;;16.90;99.90;;;;;;4978487;28;20661;-87
2023/06/18 00:09:53;;;;;;;15.68;10.18;;;16.90;99.90;;;;;;4978296;28;20209;-86
2023/06/18 00:12:19;;;;;;;13.15;9.20;;;16.90;99.90;;;;;;4995891;28;20623;-87
2023/06/18 00:14:45;;;;;;;13.70;9.75;;;16.90;99.90;;;;;;4977147;28;20181;-87
2023/06/18 00:17:11;;;;;;;17.33;9.45;;;16.90;99.90;;;;;;4977623;28;20588;-88
2023/06/18 00:19:36;;;;;;;16.90;10.98;;;16.90;99.90;;;;;;4995255;28;20185;-87
2023/06/18 00:22:02;;;;;;;20.27;9.82;;;16.80;99.90;;;;;;4977261;28;20185;-88
2023/06/18 00:24:28;;;;;;;14.73;10.13;;;16.80;99.90;;;;;;4994839;28;20182;-88
2023/06/18 00:26:53;;;;;;;17.20;10.80;;;16.80;99.90;;;;;;4995193;28;20259;-89
2023/06/18 00:29:20;;;;;;;16.63;10.32;;;16.80;99.90;;;;;;4977816;28;20598;-88
2023/06/18 00:31:45;;;;;;;14.05;8.93;;;16.80;99.90;;;;;;4995052;28;20182;-88
2023/06/18 00:34:14;;;;;;;15.13;10.45;;;16.80;99.90;;;;;;4977226;28;20355;-88
2023/06/18 00:36:43;;;;;;;15.45;10.35;;;16.80;99.90;;;;;;4994871;28;20182;-85
2023/06/18 00:39:09;;;;;;;15.18;10.52;;;16.70;99.90;;;;;;4994714;28;20182;-86
2023/06/18 00:41:35;;;;;;;16.50;10.20;;;16.80;99.90;;;;;;4977696;28;20182;-86
2023/06/18 00:44:01;;;;;;;15.48;10.10;;;16.70;99.90;;;;;;4994544;28;20200;-86
2023/06/18 00:46:30;;;;;;;17.20;11.02;;;16.70;99.90;;;;;;4994715;28;20183;-85
2023/06/18 00:48:57;;;;;;;13.50;9.57;;;16.70;99.90;;;;;;4994366;28;20201;-85
2023/06/18 00:51:26;;;;;;;13.63;10.15;;;16.70;99.90;;;;;;4994938;28;20186;-85
2023/06/18 00:53:52;;;;;;;16.55;10.35;;;16.70;99.90;;;;;;4994586;28;20178;-86
2023/06/18 00:56:19;;;;;;;19.55;10.57;;;16.70;99.90;;;;;;4977070;28;20526;-86
2023/06/18 00:58:47;;;;;;;15.82;10.43;;;16.60;99.90;;;;;;4977485;28;20194;-87
2023/06/18 01:01:14;;;;;;;14.90;10.25;;;16.70;99.90;;;;;;4994511;28;20189;-87
2023/06/18 01:03:41;;;;;;;14.50;9.82;;;16.60;99.90;;;;;;4977760;28;20193;-86
2023/06/18 01:06:11;;;;;;;20.25;10.98;;;16.60;99.90;;;;;;4998198;28;20178;-86
2023/06/18 01:08:40;;;;;;;14.85;10.00;;;16.60;99.90;;;;;;4997617;28;20340;-85
2023/06/18 01:11:06;;;;;;;17.33;10.60;;;16.60;99.90;;;;;;4979626;28;20615;-86
2023/06/18 01:13:39;;;;;;;14.80;9.98;;;16.60;99.90;;;;;;4997025;28;20198;-85
2023/06/18 01:16:09;;;;;;;20.05;11.18;;;16.60;99.90;;;;;;4997067;28;20177;-86
2023/06/18 01:18:55;;;;;;;16.23;10.43;;;16.60;99.90;;;;;;4996586;28;20226;-85
2023/06/18 01:21:23;;;;;;;19.60;10.93;;;16.60;99.90;;;;;;4978810;28;20196;-87
2023/06/18 01:24:19;;;;;;;18.23;11.07;;;16.60;99.90;;;;;;4996537;28;20181;-86
2023/06/18 01:26:45;;;;;;;18.35;11.02;;;16.50;99.90;;;;;;4994984;28;20225;-86
2023/06/18 01:29:12;;;;;;;15.82;11.02;;;16.50;99.90;;;;;;4978918;28;20667;-87
2023/06/18 01:31:42;;;;;;;17.10;10.85;;;16.50;99.90;;;;;;4978979;28;20178;-87
2023/06/18 01:34:08;;;;;;;18.27;10.90;;;16.50;99.90;;;;;;4979484;28;20170;-86
2023/06/18 01:36:47;;;;;;;20.92;11.77;;;16.50;99.90;;;;;;4996249;28;20178;-86
2023/06/18 01:39:41;;;;;;;24.17;11.55;;;16.40;99.90;;;;;;4978671;28;20204;-87
2023/06/18 01:42:16;;;;;;;19.52;11.25;;;16.50;99.90;;;;;;4996333;28;20317;-87
2023/06/18 01:44:53;;;;;;;17.73;11.65;;;16.50;99.90;;;;;;4995867;28;20647;-87
2023/06/18 01:47:20;;;;;;;19.33;11.73;;;16.50;99.90;;;;;;4995772;28;20166;-86
2023/06/18 01:49:47;;;;;;;17.42;11.73;;;16.50;99.90;;;;;;4996048;28;20209;-89
2023/06/18 01:52:16;;;;;;;17.95;11.93;;;16.50;99.90;;;;;;4995831;28;20579;-87
2023/06/18 01:54:46;;;;;;;20.50;11.82;;;16.40;99.90;;;;;;4997204;28;20308;-87
2023/06/18 01:57:13;;;;;;;18.88;11.88;;;16.40;99.90;;;;;;4997074;28;20173;-87
2023/06/18 01:59:43;;;;;;;18.38;13.00;;;16.40;99.90;;;;;;4979542;28;20182;-87
2023/06/18 02:02:09;;;;;;;16.85;12.07;;;16.40;99.90;;;;;;4996984;28;20264;-87
2023/06/18 02:04:36;;;;;;;19.92;13.02;;;16.40;99.90;;;;;;4979586;28;20182;-87
2023/06/18 02:07:02;;;;;;;23.30;14.27;;;16.40;99.90;;;;;;4979036;28;20586;-88
2023/06/18 02:09:27;;;;;;;23.38;13.07;;;16.40;99.90;;;;;;4978093;28;20264;-87
2023/06/18 02:11:53;;;;;;;23.90;12.95;;;16.40;99.90;;;;;;4978172;28;20545;-88
2023/06/18 02:14:18;;;;;;;23.27;13.02;;;16.40;99.90;;;;;;4978279;28;20177;-87
2023/06/18 02:16:44;;;;;;;23.52;13.75;;;16.40;99.90;;;;;;4995464;28;20201;-86
2023/06/18 02:19:10;;;;;;;24.15;13.40;;;16.40;99.90;;;;;;4995452;28;20536;-87
2023/06/18 02:21:36;;;;;;;22.88;13.45;;;16.40;99.90;;;;;;4978069;28;20178;-87
2023/06/18 02:24:02;;;;;;;25.48;13.90;;;16.40;99.90;;;;;;5013132;28;20246;-84
2023/06/18 02:26:27;;;;;;;22.63;14.18;;;16.40;99.90;;;;;;5002160;28;20197;-85
2023/06/18 02:28:53;;;;;;;26.50;14.50;;;16.40;99.90;;;;;;5019322;28;20212;-84
2023/06/18 02:31:19;;;;;;;22.67;14.25;;;16.30;99.90;;;;;;5002728;28;20557;-87
2023/06/18 02:33:45;;;;;;;23.67;14.25;;;16.30;99.90;;;;;;4995622;28;20182;-88
2023/06/18 02:36:11;;;;;;;23.40;14.43;;;16.40;99.90;;;;;;4995221;28;20189;-88
2023/06/18 02:38:36;;;;;;;22.88;14.27;;;16.30;99.90;;;;;;4978116;28;20185;-87
2023/06/18 02:41:02;;;;;;;27.85;14.20;;;16.30;99.90;;;;;;4977866;28;20670;-87
2023/06/18 02:43:31;;;;;;;23.30;15.23;;;16.30;99.90;;;;;;4995235;28;20174;-89
2023/06/18 02:45:57;;;;;;;26.48;14.93;;;16.30;99.90;;;;;;4978620;28;20642;-86
2023/06/18 02:48:23;;;;;;;24.45;14.95;;;16.30;99.90;;;;;;4977695;28;20205;-87
2023/06/18 02:50:48;;;;;;;25.08;14.05;;;16.30;99.90;;;;;;4995107;28;20632;-87
2023/06/18 02:53:14;;;;;;;21.55;13.80;;;16.20;99.90;;;;;;4977622;28;20182;-86
2023/06/18 02:55:43;;;;;;;26.58;13.85;;;16.20;99.90;;;;;;4977665;28;20256;-85
2023/06/18 02:58:30;;;;;;;29.45;14.50;;;16.20;99.90;;;;;;4977547;28;20293;-86
2023/06/18 03:00:57;;;;;;;27.63;15.38;;;16.20;99.90;;;;;;4995004;28;20174;-87
2023/06/18 03:03:23;;;;;;;26.92;15.68;;;16.20;99.90;;;;;;4977086;28;20541;-87
2023/06/18 03:05:49;;;;;;;27.42;15.18;;;16.10;99.90;;;;;;4994820;28;20177;-87
2023/06/18 03:08:15;;;;;;;24.95;14.32;;;16.10;99.90;;;;;;4979855;28;20185;-88
2023/06/18 03:10:44;;;;;;;22.80;14.43;;;16.10;99.90;;;;;;4978305;28;20198;-88
2023/06/18 03:13:10;;;;;;;24.80;15.30;;;16.10;99.90;;;;;;4977524;28;20209;-88
2023/06/18 03:15:35;;;;;;;27.35;15.38;;;16.10;99.90;;;;;;4976872;28;20721;-87
2023/06/18 03:18:01;;;;;;;23.85;16.10;;;16.10;99.90;;;;;;4961273;28;20284;-88
2023/06/18 03:20:30;;;;;;;26.88;15.57;;;16.00;99.90;;;;;;4994417;28;20240;-87
2023/06/18 03:22:56;;;;;;;25.08;14.35;;;16.10;99.90;;;;;;4977143;28;20555;-88
2023/06/18 03:25:22;;;;;;;28.85;15.20;;;16.10;99.90;;;;;;4976722;28;20198;-88
2023/06/18 03:27:48;;;;;;;26.10;16.70;;;16.10;99.90;;;;;;4976339;28;20249;-88
2023/06/18 03:30:14;;;;;;;25.73;15.88;;;16.10;99.90;;;;;;4994249;28;20201;-87
2023/06/18 03:32:40;;;;;;;28.23;16.10;;;16.10;99.90;;;;;;4994646;28;20190;-90
2023/06/18 03:35:06;;;;;;;28.38;16.67;;;16.00;99.90;;;;;;4976918;28;20204;-88
2023/06/18 03:37:31;;;;;;;28.35;16.35;;;16.00;99.90;;;;;;4994193;28;20182;-89
2023/06/18 03:39:57;;;;;;;28.70;17.92;;;16.00;99.90;;;;;;4977054;28;20189;-89
2023/06/18 03:42:26;;;;;;;33.33;17.42;;;15.90;99.90;;;;;;4976769;28;20550;-87
2023/06/18 03:44:52;;;;;;;26.15;16.63;;;15.90;99.90;;;;;;4977152;28;20182;-87
2023/06/18 03:47:18;;;;;;;28.38;16.85;;;15.90;99.90;;;;;;4994040;28;20536;-86
2023/06/18 03:49:44;;;;;;;27.20;17.55;;;15.90;99.90;;;;;;4994021;28;20206;-86
2023/06/18 03:52:10;;;;;;;30.80;17.17;;;15.90;99.90;;;;;;4993760;28;20209;-85
2023/06/18 03:54:38;;;;;;;26.98;15.32;;;15.90;99.90;;;;;;4976656;28;20263;-85
2023/06/18 03:57:04;;;;;;;35.92;19.08;;;15.90;99.90;;;;;;4976850;28;20186;-85
2023/06/18 03:59:31;;;;;;;31.08;17.42;;;16.00;99.90;;;;;;4993830;28;20232;-85
2023/06/18 04:01:57;;;;;;;29.58;17.48;;;16.00;99.90;;;;;;4976587;28;20194;-84
2023/06/18 04:04:23;;;;;;;31.13;16.77;;;16.00;99.90;;;;;;4993725;28;20189;-85
2023/06/18 04:06:49;;;;;;;30.92;17.00;;;16.00;99.90;;;;;;4976632;28;20178;-85
2023/06/18 04:09:15;;;;;;;28.17;17.75;;;16.00;99.90;;;;;;4976471;28;20206;-86
2023/06/18 04:11:42;;;;;;;30.65;18.95;;;16.00;99.90;;;;;;4993746;28;20178;-86
2023/06/18 04:14:08;;;;;;;27.83;17.42;;;16.00;99.90;;;;;;4976825;28;20193;-87
2023/06/18 04:16:34;;;;;;;26.30;17.85;;;16.00;99.90;;;;;;4993760;28;20260;-87
2023/06/18 04:19:00;;;;;;;29.25;16.75;;;16.00;99.90;;;;;;4993835;28;20240;-86
2023/06/18 04:21:25;;;;;;;29.55;18.13;;;16.10;99.90;;;;;;4976342;28;20189;-86
2023/06/18 04:23:53;;;;;;;32.88;17.83;;;16.10;99.90;;;;;;4993724;28;20533;-87
2023/06/18 04:26:18;;;;;;;30.60;18.25;;;16.10;99.90;;;;;;4976182;28;20193;-86
2023/06/18 04:28:44;;;;;;;30.27;17.70;;;16.20;99.90;;;;;;4976048;28;20217;-86
2023/06/18 04:31:09;;;;;;;27.27;17.45;;;16.20;99.90;;;;;;4960360;28;20542;-86
2023/06/18 04:33:36;;;;;;;26.55;17.60;;;16.20;99.90;;;;;;4976267;28;20184;-86
2023/06/18 04:36:01;;;;;;;31.83;17.90;;;16.20;99.90;;;;;;4976485;28;20343;-86
2023/06/18 04:38:27;;;;;;;29.85;17.60;;;16.30;99.90;;;;;;4994512;28;20589;-86
2023/06/18 04:40:53;;;;;;;30.35;17.77;;;16.30;99.90;;;;;;4997425;28;20256;-87
2023/06/18 04:43:18;;;;;;;31.75;19.23;;;16.20;99.90;;;;;;4997102;28;20205;-86
2023/06/18 04:45:46;;;;;;;29.73;18.75;;;16.20;99.90;;;;;;4979581;28;20552;-86
2023/06/18 04:48:12;;;;;;;29.40;17.92;;;16.30;99.90;;;;;;4997256;28;20182;-87
2023/06/18 04:50:39;;;;;;;33.45;18.15;;;16.30;99.90;;;;;;4979511;28;20220;-86
2023/06/18 04:53:04;;;;;;;28.27;17.58;;;16.30;99.90;;;;;;4980003;28;20240;-88
2023/06/18 04:55:30;;;;;;;29.27;17.25;;;16.30;99.90;;;;;;4996994;28;20178;-88
2023/06/18 04:57:56;;;;;;;28.17;17.50;;;16.30;99.90;;;;;;4997098;28;20181;-86
2023/06/18 05:00:22;;;;;;;28.50;17.85;;;16.30;99.90;;;;;;4997006;28;20184;-86
2023/06/18 05:02:48;;;;;;;30.88;17.25;;;16.20;99.90;;;;;;4979123;28;20185;-85
2023/06/18 05:05:15;;;;;;;27.42;18.08;;;16.20;99.90;;;;;;4997093;28;20174;-85
2023/06/18 05:07:41;;;;;;;33.55;18.63;;;16.30;99.90;;;;;;4996749;28;20631;-85
2023/06/18 05:10:08;;;;;;;30.35;17.75;;;16.40;99.90;;;;;;4979631;28;20210;-85
2023/06/18 05:12:34;;;;;;;32.22;19.08;;;16.50;99.90;;;;;;4996745;28;20253;-86
2023/06/18 05:15:00;;;;;;;32.58;18.70;;;16.50;99.90;;;;;;4996792;28;20269;-86
2023/06/18 05:17:25;;;;;;;36.58;19.00;;;16.50;99.90;;;;;;4996707;28;20189;-86
2023/06/18 05:19:51;;;;;;;30.63;18.27;;;16.60;99.90;;;;;;4979487;28;20701;-86
2023/06/18 05:22:17;;;;;;;31.50;18.00;;;16.50;99.90;;;;;;4996642;28;20178;-84
2023/06/18 05:24:42;;;;;;;31.15;17.92;;;16.50;99.90;;;;;;4996319;28;20178;-85
2023/06/18 05:27:08;;;;;;;34.45;20.75;;;16.50;99.90;;;;;;4979178;28;20230;-85
2023/06/18 05:29:34;;;;;;;28.85;18.42;;;16.40;99.90;;;;;;4996319;28;20550;-85
2023/06/18 05:31:59;;;;;;;31.20;19.08;;;16.50;99.90;;;;;;4979385;28;20197;-84
2023/06/18 05:34:25;;;;;;;37.88;20.35;;;16.60;99.90;;;;;;4978728;28;20618;-84
2023/06/18 05:36:51;;;;;;;30.90;18.75;;;16.60;99.90;;;;;;4978686;28;20182;-85
2023/06/18 05:39:16;;;;;;;30.73;18.33;;;16.60;99.90;;;;;;4978832;28;20186;-86
2023/06/18 05:41:42;;;;;;;31.10;18.50;;;16.60;99.90;;;;;;4978834;28;20194;-84
2023/06/18 05:44:08;;;;;;;30.23;18.80;;;16.60;99.90;;;;;;4996291;28;20182;-84
2023/06/18 05:46:33;;;;;;;29.75;18.67;;;16.60;99.90;;;;;;4995955;28;20186;-86
2023/06/18 05:48:59;;;;;;;29.75;18.13;;;16.60;99.90;;;;;;4978420;28;20205;-87
2023/06/18 05:51:25;;;;;;;29.15;18.02;;;16.70;99.90;;;;;;4995364;28;20174;-87
2023/06/18 05:53:51;;;;;;;29.80;17.90;;;16.70;99.90;;;;;;4978813;28;20178;-91
2023/06/18 05:56:17;;;;;;;32.25;18.35;;;16.70;99.90;;;;;;4995699;28;20186;-89
2023/06/18 05:58:44;;;;;;;30.38;17.92;;;16.70;99.90;;;;;;4977698;28;20186;-90
2023/06/18 06:01:09;;;;;;;28.27;17.48;;;16.80;99.90;;;;;;4995376;28;20182;-89
2023/06/18 06:03:35;;;;;;;33.15;17.80;;;16.80;99.90;;;;;;4977389;28;20173;-89
2023/06/18 06:06:02;;;;;;;28.60;17.40;;;16.80;99.90;;;;;;4993118;28;20190;-90
2023/06/18 06:08:28;;;;;;;27.13;17.88;;;16.80;99.90;;;;;;4977481;28;20279;-88
2023/06/18 06:10:54;;;;;;;26.63;17.25;;;16.80;99.90;;;;;;4977623;28;20298;-90
2023/06/18 06:13:19;;;;;;;26.48;17.50;;;16.90;99.90;;;;;;4994584;28;20180;-90
2023/06/18 06:15:45;;;;;;;26.83;17.73;;;16.70;99.90;;;;;;4977143;28;20185;-91
2023/06/18 06:18:11;;;;;;;29.65;17.20;;;16.70;99.90;;;;;;4994327;28;20204;-92
2023/06/18 06:20:37;;;;;;;27.60;16.70;;;16.70;99.90;;;;;;4994275;28;20185;-89
2023/06/18 06:23:02;;;;;;;28.33;17.35;;;16.70;99.90;;;;;;4994893;28;20216;-91
2023/06/18 06:25:28;;;;;;;29.98;18.02;;;16.80;99.90;;;;;;4996412;28;20209;-87
2023/06/18 06:27:54;;;;;;;30.15;18.23;;;16.80;99.90;;;;;;4994401;28;20226;-89
2023/06/18 06:30:20;;;;;;;30.05;18.13;;;16.70;99.90;;;;;;4994256;28;20259;-91
2023/06/18 06:32:46;;;;;;;31.70;18.35;;;16.70;99.90;;;;;;4994931;28;20178;-90
2023/06/18 06:35:11;;;;;;;32.35;20.23;;;16.70;99.90;;;;;;5005761;28;20185;-89
2023/06/18 06:37:37;;;;;;;30.23;18.95;;;16.80;99.90;;;;;;4997516;28;20239;-89
2023/06/18 06:40:04;;;;;;;33.40;20.15;;;16.80;99.90;;;;;;4997135;28;20230;-92
2023/06/18 06:42:30;;;;;;;31.15;19.63;;;16.80;99.90;;;;;;4980594;28;20209;-91
2023/06/18 06:44:56;;;;;;;35.33;20.42;;;16.80;99.90;;;;;;5013798;28;20185;-90
2023/06/18 06:47:21;;;;;;;30.67;19.90;;;16.90;99.90;;;;;;5013127;28;20185;-94
2023/06/18 06:49:47;;;;;;;33.55;20.38;;;17.00;99.90;;;;;;4995492;28;20229;-90
2023/06/18 06:52:13;;;;;;;33.55;19.75;;;17.00;99.90;;;;;;4995602;28;20231;-93
2023/06/18 06:54:38;;;;;;;30.58;19.45;;;16.90;99.90;;;;;;5014502;28;20196;-89
2023/06/18 06:57:04;;;;;;;33.03;20.70;;;17.00;99.90;;;;;;4979419;28;20571;-94
2023/06/18 06:59:30;;;;;;;30.00;20.02;;;16.90;99.90;;;;;;4993540;28;20676;-93
2023/06/18 07:01:56;;;;;;;32.20;20.75;;;16.90;99.90;;;;;;4981178;28;20196;-94
2023/06/18 07:04:22;;;;;;;33.15;20.42;;;16.90;99.90;;;;;;4990598;28;20186;-93
2023/06/18 07:06:49;;;;;;;33.88;21.00;;;16.90;99.90;;;;;;4986408;28;20665;-90
2023/06/18 07:09:14;;;;;;;36.88;21.45;;;17.00;99.90;;;;;;5013339;28;20708;-89
2023/06/18 07:11:40;;;;;;;34.65;20.92;;;17.00;99.90;;;;;;4979927;28;20201;-86
2023/06/18 07:14:06;;;;;;;33.45;21.08;;;17.00;99.90;;;;;;5007317;28;20209;-89
2023/06/18 07:16:32;;;;;;;34.13;19.75;;;17.10;99.90;;;;;;5005927;28;20177;-88
2023/06/18 07:18:58;;;;;;;31.90;20.98;;;17.10;99.90;;;;;;4985886;28;20239;-87
2023/06/18 07:21:24;;;;;;;34.28;21.05;;;17.20;99.90;;;;;;5006255;28;20235;-91
2023/06/18 07:23:50;;;;;;;36.47;21.27;;;17.20;99.90;;;;;;4979203;28;20645;-87
2023/06/18 07:26:15;;;;;;;37.45;21.73;;;17.20;99.90;;;;;;4976730;28;20185;-88
2023/06/18 07:28:41;;;;;;;34.20;21.48;;;17.20;99.90;;;;;;4990923;28;20646;-91
2023/06/18 07:31:08;;;;;;;35.10;21.20;;;17.20;99.90;;;;;;4992771;28;20221;-88
2023/06/18 07:33:33;;;;;;;34.42;21.55;;;17.20;99.90;;;;;;4993216;28;20543;-92
2023/06/18 07:35:59;;;;;;;31.52;19.73;;;17.20;99.90;;;;;;4989465;28;20197;-87
2023/06/18 07:38:25;;;;;;;34.72;20.73;;;17.20;99.90;;;;;;4989508;28;20610;-90
2023/06/18 07:40:50;;;;;;;33.95;20.58;;;17.20;99.90;;;;;;4992881;28;20192;-89
2023/06/18 07:43:16;;;;;;;46.60;27.92;;;17.20;99.90;;;;;;4991559;28;20246;-89
2023/06/18 07:45:42;;;;;;;41.50;23.77;;;17.30;99.90;;;;;;4996824;28;20177;-88
2023/06/18 07:48:08;;;;;;;33.97;21.00;;;17.30;99.90;;;;;;4992396;28;20180;-89
2023/06/18 07:50:35;;;;;;;37.83;21.75;;;17.40;99.90;;;;;;5008047;28;20678;-88
2023/06/18 07:53:01;;;;;;;34.42;21.65;;;17.40;99.90;;;;;;4983202;28;20190;-91
2023/06/18 07:55:26;;;;;;;35.22;21.25;;;17.40;99.90;;;;;;4986416;28;20260;-90
2023/06/18 07:57:52;;;;;;;33.33;22.15;;;17.40;99.90;;;;;;4994322;28;20724;-85
2023/06/18 08:00:18;;;;;;;33.85;21.15;;;17.40;99.90;;;;;;5002391;28;20632;-88
2023/06/18 08:02:44;;;;;;;36.38;20.70;;;17.40;99.90;;;;;;4993212;28;20193;-90
2023/06/18 08:05:10;;;;;;;35.92;20.75;;;17.40;99.90;;;;;;4992695;28;20201;-83
2023/06/18 08:07:36;;;;;;;33.15;20.42;;;17.40;99.90;;;;;;5003869;28;20185;-86
2023/06/18 08:10:02;;;;;;;34.60;21.92;;;17.40;99.90;;;;;;4993204;28;20225;-90
2023/06/18 08:12:28;;;;;;;33.10;20.98;;;17.40;99.90;;;;;;5010488;28;20208;-87
2023/06/18 08:14:53;;;;;;;30.98;20.23;;;17.40;99.90;;;;;;4965502;28;20560;-83
2023/06/18 08:17:20;;;;;;;35.10;22.08;;;17.50;99.90;;;;;;5017932;28;20189;-84
2023/06/18 08:19:46;;;;;;;36.35;21.95;;;17.50;99.90;;;;;;5013759;28;20197;-88
2023/06/18 08:22:12;;;;;;;33.13;21.60;;;17.50;99.90;;;;;;5025295;28;20188;-84
2023/06/18 08:24:38;;;;;;;32.45;21.83;;;17.50;99.90;;;;;;5016436;28;20193;-87
2023/06/18 08:27:04;;;;;;;37.67;22.67;;;17.50;99.90;;;;;;5016392;28;20247;-90
2023/06/18 08:29:30;;;;;;;35.83;21.50;;;17.50;99.90;;;;;;4996677;28;20234;-88
2023/06/18 08:31:59;;;;;;;33.60;21.17;;;17.50;99.90;;;;;;5009009;28;20264;-84
2023/06/18 08:34:25;;;;;;;34.33;21.63;;;17.50;99.90;;;;;;4996341;28;20279;-84
2023/06/18 08:36:51;;;;;;;35.13;22.13;;;17.60;99.90;;;;;;5011254;28;20216;-86
2023/06/18 08:39:17;;;;;;;33.97;21.02;;;17.60;99.90;;;;;;5016280;28;20193;-87
2023/06/18 08:41:45;;;;;;;33.63;22.13;;;17.60;99.90;;;;;;5014846;28;20197;-86
2023/06/18 08:44:11;;;;;;;32.97;20.83;;;17.60;99.90;;;;;;4996951;28;20217;-86
2023/06/18 08:46:41;;;;;;;34.70;21.55;;;17.60;99.90;;;;;;5008184;28;20217;-87
2023/06/18 08:49:09;;;;;;;39.88;26.15;;;17.60;99.90;;;;;;4995247;28;20567;-91
2023/06/18 08:51:38;;;;;;;34.78;21.95;;;17.60;99.90;;;;;;5006117;28;20261;-88
2023/06/18 08:54:13;;;;;;;31.95;19.83;;;17.70;99.90;;;;;;5000875;28;20259;-93
2023/06/18 08:56:43;;;;;;;33.70;21.95;;;17.80;99.90;;;;;;4994036;28;20208;-93
2023/06/18 08:59:11;;;;;;;31.35;22.48;;;17.90;99.90;;;;;;4986116;28;20200;-91
2023/06/18 09:01:38;;;;;;;37.95;21.45;;;17.90;99.90;;;;;;4995742;28;20229;-89
2023/06/18 09:04:05;;;;;;;30.88;21.00;;;17.80;99.90;;;;;;4995407;28;20212;-93
2023/06/18 09:06:32;;;;;;;37.33;21.65;;;17.70;99.90;;;;;;5012628;28;20196;-89
2023/06/18 09:09:00;;;;;;;33.75;21.20;;;17.70;99.90;;;;;;4997063;28;20232;-90
2023/06/18 09:11:26;;;;;;;33.58;21.45;;;17.70;99.90;;;;;;5009698;28;20195;-90
2023/06/18 09:13:52;;;;;;;35.45;21.95;;;17.80;99.90;;;;;;5014157;28;20197;-91
2023/06/18 09:16:18;;;;;;;31.02;20.95;;;17.90;99.90;;;;;;5014269;28;20173;-92
2023/06/18 09:18:45;;;;;;;33.38;21.70;;;17.80;99.90;;;;;;4992741;28;20318;-87
2023/06/18 09:21:30;;;;;;;31.25;21.05;;;17.80;99.90;;;;;;5012290;28;20343;-89
2023/06/18 09:23:56;;;;;;;37.22;22.45;;;17.80;99.90;;;;;;5007539;28;20536;-89
2023/06/18 09:26:22;;;;;;;35.13;21.45;;;17.80;99.90;;;;;;4976800;28;20185;-88
2023/06/18 09:28:49;;;;;;;34.85;22.55;;;17.80;99.90;;;;;;5003914;28;20273;-89
2023/06/18 09:31:25;;;;;;;31.25;20.05;;;17.90;99.90;;;;;;5002886;28;20233;-89
2023/06/18 09:33:51;;;;;;;33.78;22.80;;;18.00;99.90;;;;;;5010805;28;20511;-88
2023/06/18 09:36:17;;;;;;;31.00;21.60;;;18.10;99.90;;;;;;4995463;28;20736;-92
2023/06/18 09:38:42;;;;;;;37.55;23.80;;;17.80;99.90;;;;;;5008018;28;20186;-91
2023/06/18 09:41:16;;;;;;;36.00;22.25;;;17.80;99.90;;;;;;5009911;28;20197;-88
2023/06/18 09:43:45;;;;;;;35.28;21.75;;;17.90;99.90;;;;;;5006236;28;20185;-88
2023/06/18 09:46:12;;;;;;;33.05;21.63;;;17.90;99.90;;;;;;4976178;28;20198;-89
2023/06/18 09:48:40;;;;;;;33.67;21.42;;;17.90;99.90;;;;;;5012785;28;20187;-90
2023/06/18 09:51:06;;;;;;;38.15;21.40;;;17.90;99.90;;;;;;5015169;28;20189;-90
2023/06/18 09:53:32;;;;;;;30.92;20.38;;;17.80;99.90;;;;;;5011839;28;20185;-90
2023/06/18 09:56:27;;;;;;;29.45;20.88;;;17.80;99.90;;;;;;5007670;28;20225;-89
2023/06/18 09:58:53;;;;;;;33.30;19.20;;;17.70;99.90;;;;;;4985284;28;20216;-89
2023/06/18 10:01:19;;;;;;;32.22;19.83;;;17.70;99.90;;;;;;5014128;28;20177;-91
2023/06/18 10:03:46;;;;;;;27.65;18.73;;;17.70;99.90;;;;;;5017332;28;20185;-91
2023/06/18 10:06:20;;;;;;;30.20;18.90;;;17.60;99.90;;;;;;4982771;28;20186;-92
2023/06/18 10:08:50;;;;;;;32.38;20.20;;;17.60;99.90;;;;;;5019147;28;20268;-89
2023/06/18 10:11:17;;;;;;;32.45;20.23;;;17.60;99.90;;;;;;5026979;28;20191;-89
2023/06/18 10:13:50;;;;;;;31.77;19.90;;;17.60;99.90;;;;;;5018397;28;20186;-88
2023/06/18 10:16:18;;;;;;;29.63;19.83;;;17.60;99.90;;;;;;5013522;28;20198;-88
2023/06/18 10:18:58;;;;;;;31.00;21.02;;;17.60;99.90;;;;;;5021813;28;20185;-89
2023/06/18 10:21:25;;;;;;;28.55;19.25;;;17.60;99.90;;;;;;5008410;28;20253;-88
2023/06/18 10:24:02;;;;;;;31.88;19.50;;;17.50;99.90;;;;;;5008935;28;20173;-91
2023/06/18 10:26:29;;;;;;;27.40;18.73;;;17.60;99.90;;;;;;5029097;28;20161;-91
2023/06/18 10:28:56;;;;;;;29.65;19.55;;;17.50;99.90;;;;;;5034362;28;20228;-87
2023/06/18 10:31:23;;;;;;;31.13;18.63;;;17.50;99.90;;;;;;5034681;28;20176;-88
2023/06/18 10:33:50;;;;;;;30.52;20.48;;;17.60;99.90;;;;;;5025112;28;20178;-89
2023/06/18 10:36:16;;;;;;;29.02;18.98;;;17.60;99.90;;;;;;5003543;28;20229;-87
2023/06/18 10:38:43;;;;;;;29.20;20.25;;;17.70;99.90;;;;;;5024972;28;20177;-89
2023/06/18 10:41:16;;;;;;;31.73;18.25;;;17.80;99.90;;;;;;4981038;28;20271;-92
2023/06/18 10:43:42;;;;;;;28.90;18.83;;;17.80;99.90;;;;;;5030430;28;20184;-90
2023/06/18 10:46:09;;;;;;;32.05;21.13;;;17.70;99.90;;;;;;5012630;28;20185;-89
2023/06/18 10:48:35;;;;;;;30.13;20.60;;;17.70;99.90;;;;;;5028439;28;20161;-88
2023/06/18 10:51:12;;;;;;;30.20;20.00;;;17.80;99.90;;;;;;4998046;28;20189;-93
2023/06/18 10:53:37;;;;;;;32.65;20.48;;;17.90;99.90;;;;;;5008365;28;20239;-92
2023/06/18 10:56:03;;;;;;;33.53;20.80;;;17.90;99.90;;;;;;5011071;28;20185;-94
2023/06/18 10:58:33;;;;;;;30.05;20.10;;;17.90;99.90;;;;;;4976533;28;20205;-93
2023/06/18 11:00:59;;;;;;;33.30;20.77;;;17.70;99.90;;;;;;4982567;28;20196;-91
2023/06/18 11:03:34;;;;;;;27.20;15.77;;;17.70;99.90;;;;;;5020781;28;20182;-90
2023/06/18 11:06:02;;;;;;;25.23;16.48;;;17.50;99.90;;;;;;5015003;28;20231;-92
2023/06/18 11:08:33;;;;;;;26.42;17.25;;;17.40;99.90;;;;;;5010535;28;20166;-90
2023/06/18 11:11:12;;;;;;;22.98;16.25;;;17.40;99.90;;;;;;5021157;28;20670;-87
2023/06/18 11:13:41;;;;;;;24.25;15.60;;;17.30;99.90;;;;;;5011222;28;20249;-92
2023/06/18 11:16:06;;;;;;;22.05;15.68;;;17.30;99.90;;;;;;5003252;28;20682;-92
2023/06/18 11:18:33;;;;;;;22.25;15.38;;;17.20;99.90;;;;;;4995526;28;20268;-91
2023/06/18 11:21:02;;;;;;;22.90;14.90;;;17.20;99.90;;;;;;5000487;28;20221;-86
2023/06/18 11:23:29;;;;;;;21.88;14.35;;;17.20;99.90;;;;;;4992237;28;20181;-89
2023/06/18 11:25:55;;;;;;;20.08;13.95;;;17.20;99.90;;;;;;4982523;28;20217;-89
2023/06/18 11:28:22;;;;;;;22.58;15.07;;;17.30;99.90;;;;;;5002124;28;20624;-90
2023/06/18 11:30:52;;;;;;;23.50;15.57;;;17.30;99.90;;;;;;5005850;28;20661;-91
2023/06/18 11:33:26;;;;;;;24.50;16.35;;;17.40;99.90;;;;;;5010663;28;20518;-90
2023/06/18 11:35:53;;;;;;;23.58;15.73;;;17.50;99.90;;;;;;4979549;28;20196;-91
2023/06/18 11:38:20;;;;;;;26.25;16.20;;;17.60;99.90;;;;;;5009329;28;20707;-91
2023/06/18 11:40:53;;;;;;;23.75;16.73;;;17.70;99.90;;;;;;4994112;28;20248;-90
2023/06/18 11:43:20;;;;;;;28.23;18.27;;;17.80;99.90;;;;;;5003029;28;20182;-90
2023/06/18 11:45:53;;;;;;;28.17;18.90;;;18.00;99.90;;;;;;5008695;28;20681;-91
2023/06/18 11:48:22;;;;;;;30.88;19.70;;;18.20;99.90;;;;;;5002883;28;20177;-89
2023/06/18 11:50:53;;;;;;;27.88;18.70;;;18.50;99.90;;;;;;5016224;28;20204;-90
2023/06/18 11:53:20;;;;;;;34.35;21.85;;;18.70;99.90;;;;;;4997715;28;20174;-90
2023/06/18 11:55:47;;;;;;;29.67;19.77;;;19.00;99.90;;;;;;5021448;28;20198;-91
2023/06/18 11:58:15;;;;;;;29.95;18.95;;;19.10;99.90;;;;;;5000668;28;20201;-90
2023/06/18 12:00:41;;;;;;;30.67;19.73;;;19.20;99.90;;;;;;5008244;28;20178;-90
2023/06/18 12:03:06;;;;;;;25.23;17.35;;;19.50;99.90;;;;;;5010061;28;20192;-93
2023/06/18 12:05:36;;;;;;;20.60;15.45;;;19.60;99.90;;;;;;5025114;28;20236;-93
2023/06/18 12:08:13;;;;;;;23.10;16.70;;;19.70;99.90;;;;;;5019512;28;20206;-89
2023/06/18 12:10:41;;;;;;;22.48;15.38;;;19.90;99.90;;;;;;5023183;28;20188;-94
2023/06/18 12:13:22;;;;;;;20.77;14.85;;;19.90;99.90;;;;;;5006445;28;20216;-93
2023/06/18 12:15:58;;;;;;;23.20;16.20;;;20.00;99.90;;;;;;5020771;28;20166;-91
2023/06/18 12:18:28;;;;;;;18.20;13.50;;;20.10;99.90;;;;;;5029101;28;20257;-93
2023/06/18 12:20:54;;;;;;;19.65;13.93;;;20.30;99.90;;;;;;5013286;28;20188;-92
2023/06/18 12:23:22;;;;;;;18.40;13.07;;;20.10;99.90;;;;;;5031469;28;20205;-93
2023/06/18 12:25:48;;;;;;;20.30;13.60;;;20.10;99.90;;;;;;5032726;28;20205;-93
2023/06/18 12:28:14;;;;;;;16.83;12.35;;;20.20;99.90;;;;;;5035577;28;20232;-92